Terminal Aerodrome Forecast
Issued by NWS Omaha/Valley, NE

Home | Current Version | Previous Version | Text Only | Print | Product List | Glossary On
Versions: 1 2 3 4 5 6 7 8 9 10 11 12 13 14 15 16 17 18 19 20 21 22 23 24 25 26 27 28 29 30 31 32 33 34 35 36 37 38 39 40 41 42 43
036
FTUS43 KOAX 082015 AAB
TAFLNK
TAF AMD
KLNK 082015Z 0820/0918 33024G34KT P6SM SCT030 SCT250
     FM082200 34022G32KT P6SM SCT035 BKN200
     FM090000 34015G23KT P6SM FEW030 BKN150
     FM090900 34014KT P6SM SCT250=

USA.gov is the U.S. government's official web portal to all federal, state and local government web resources and services.